Time;durP1;ratioP1;P1;durP2;ratioP2;P2;SDS_P1;SDS_P2;PMS_P1;PMS_P2;Temp;Humidity;BMP_temperature;BMP_pressure;BME280_temperature;BME280_humidity;BME280_pressure;Samples;Min_cycle;Max_cycle;Signal;HPM_P1;HPM_P2
2021/12/20 00:00:29;;;;;;;6.93;2.97;;;;;;;6.58;97.44;102539.38;5018337;28;20029;-72
2021/12/20 00:02:58;;;;;;;10.10;3.60;;;;;;;6.52;97.55;102544.81;5018048;28;20104;-72
2021/12/20 00:05:25;;;;;;;4.28;2.78;;;;;;;6.57;97.73;102542.88;5017841;28;20153;-72
2021/12/20 00:07:53;;;;;;;16.95;3.95;;;;;;;6.63;97.33;102537.44;5014511;28;20043;-73
2021/12/20 00:10:20;;;;;;;6.43;2.42;;;;;;;6.59;97.35;102535.84;5018522;28;20099;-73
2021/12/20 00:12:47;;;;;;;6.70;2.80;;;;;;;6.61;97.44;102531.41;5017107;28;20125;-72
2021/12/20 00:15:14;;;;;;;13.00;2.55;;;;;;;6.62;97.29;102535.72;5018203;28;20033;-73
2021/12/20 00:17:41;;;;;;;10.32;3.25;;;;;;;6.65;97.11;102530.41;5012653;28;20080;-73
2021/12/20 00:20:09;;;;;;;11.68;3.05;;;;;;;6.62;96.83;102525.28;5018648;28;20123;-72
2021/12/20 00:22:36;;;;;;;10.40;3.50;;;;;;;6.56;96.99;102530.72;4998365;28;20495;-72
2021/12/20 00:25:05;;;;;;;8.75;2.47;;;;;;;6.61;97.03;102533.19;5016437;28;20033;-74
2021/12/20 00:27:32;;;;;;;4.38;2.33;;;;;;;6.62;96.87;102520.06;5029509;28;20060;-71
2021/12/20 00:29:58;;;;;;;5.00;2.85;;;;;;;6.62;96.90;102522.69;5031629;28;20119;-71
2021/12/20 00:32:27;;;;;;;11.35;3.85;;;;;;;6.59;96.74;102512.34;5014341;28;20053;-73
2021/12/20 00:34:54;;;;;;;7.03;2.40;;;;;;;6.50;96.88;102524.84;5023071;28;20040;-72
2021/12/20 00:40:22;;;;;;;9.40;3.28;;;;;;;6.55;96.80;102515.13;5018935;28;20052;-72
2021/12/20 00:42:50;;;;;;;4.10;2.60;;;;;;;6.49;97.01;102533.59;5020770;28;20045;-73
2021/12/20 00:45:19;;;;;;;4.97;2.40;;;;;;;6.46;97.19;102528.50;5017616;28;20046;-74
2021/12/20 00:47:46;;;;;;;7.30;3.10;;;;;;;6.49;97.13;102528.38;5017401;28;20052;-74
2021/12/20 00:50:15;;;;;;;6.07;2.47;;;;;;;6.50;97.14;102525.72;5015726;28;20041;-71
2021/12/20 00:52:43;;;;;;;8.68;2.65;;;;;;;6.55;96.92;102513.34;5000968;28;20503;-71
2021/12/20 00:55:15;;;;;;;17.88;2.45;;;;;;;6.50;96.61;102517.91;5018486;28;20117;-73
2021/12/20 00:57:42;;;;;;;;;;;;;;;6.49;96.99;102518.78;5030710;28;20076;-74
2021/12/20 01:00:10;;;;;;;16.75;2.83;;;;;;;6.45;96.91;102522.41;5018788;28;19925;-73
2021/12/20 01:02:40;;;;;;;10.77;4.00;;;;;;;6.46;97.42;102520.66;5014874;28;20092;-72
2021/12/20 01:05:08;;;;;;;7.15;2.92;;;;;;;6.46;97.19;102524.09;5011531;28;20077;-71
2021/12/20 01:07:35;;;;;;;10.57;2.90;;;;;;;6.43;97.00;102519.00;5017139;28;20053;-74
2021/12/20 01:10:05;;;;;;;4.43;2.17;;;;;;;6.44;97.18;102519.84;4997638;28;20077;-73
2021/12/20 01:12:42;;;;;;;6.22;1.85;;;;;;;6.44;96.98;102515.47;5017415;28;20041;-72
2021/12/20 01:15:09;;;;;;;20.08;3.00;;;;;;;6.40;97.32;102508.66;5017424;28;20042;-72
2021/12/20 01:17:35;;;;;;;5.13;2.38;;;;;;;6.34;97.46;102515.00;5026550;28;20041;-73
2021/12/20 01:20:02;;;;;;;23.67;3.40;;;;;;;6.43;97.64;102513.78;5017636;28;20049;-72
2021/12/20 01:22:29;;;;;;;13.02;3.10;;;;;;;6.37;97.75;102513.97;5016483;28;20092;-73
2021/12/20 01:24:55;;;;;;;3.28;1.83;;;;;;;6.40;97.73;102519.09;5020532;28;20044;-72
2021/12/20 01:27:22;;;;;;;4.82;1.98;;;;;;;6.42;98.12;102513.81;5020710;28;20649;-73
2021/12/20 01:29:50;;;;;;;24.58;2.92;;;;;;;6.50;97.10;102517.03;5015209;28;20041;-74
2021/12/20 01:32:17;;;;;;;2.55;1.85;;;;;;;6.50;96.61;102519.63;5017139;28;20049;-73
2021/12/20 01:34:43;;;;;;;6.20;2.95;;;;;;;6.49;96.20;102524.00;5027543;28;20057;-73
2021/12/20 01:37:11;;;;;;;7.15;2.30;;;;;;;6.50;96.76;102522.25;5022765;28;20052;-72
2021/12/20 01:39:38;;;;;;;8.00;2.53;;;;;;;6.48;96.70;102527.53;5015318;28;20080;-73
2021/12/20 01:42:05;;;;;;;3.80;2.15;;;;;;;6.50;96.64;102515.28;5017354;28;20072;-73
2021/12/20 01:44:32;;;;;;;3.70;1.88;;;;;;;6.53;96.61;102519.53;4997278;28;20519;-72
2021/12/20 01:47:02;;;;;;;6.07;2.70;;;;;;;6.48;96.45;102518.84;5021324;28;20051;-73
2021/12/20 01:49:31;;;;;;;5.05;2.40;;;;;;;6.40;96.56;102519.09;5011634;28;20049;-73
2021/12/20 01:52:09;;;;;;;7.50;2.10;;;;;;;6.46;96.47;102513.66;5016334;28;20176;-75
2021/12/20 01:54:36;;;;;;;5.25;2.45;;;;;;;6.38;96.73;102507.84;5016753;28;20184;-73
2021/12/20 01:57:04;;;;;;;4.10;2.50;;;;;;;6.35;97.04;102507.09;5018525;28;20045;-73
2021/12/20 01:59:30;;;;;;;9.88;2.80;;;;;;;6.38;97.18;102510.47;5019905;28;20559;-72
2021/12/20 02:01:57;;;;;;;6.65;1.98;;;;;;;6.41;96.51;102502.53;5022458;28;20101;-73
2021/12/20 02:04:27;;;;;;;4.22;1.85;;;;;;;6.36;96.92;102502.75;5030549;28;20049;-73
2021/12/20 02:06:53;;;;;;;6.00;2.10;;;;;;;6.32;96.82;102499.38;5034697;28;20049;-74
2021/12/20 02:09:21;;;;;;;9.68;1.90;;;;;;;6.30;97.00;102500.34;5017427;28;20053;-73
2021/12/20 02:11:49;;;;;;;4.30;2.00;;;;;;;6.30;97.14;102500.34;5016512;28;20045;-74
2021/12/20 02:14:18;;;;;;;10.23;2.50;;;;;;;6.28;96.76;102512.59;5027717;28;20052;-73
2021/12/20 02:16:45;;;;;;;8.10;1.60;;;;;;;6.26;96.96;102509.19;4999749;28;20064;-72
2021/12/20 02:19:14;;;;;;;9.82;2.17;;;;;;;6.31;96.36;102510.75;5015112;28;20100;-73
2021/12/20 02:21:44;;;;;;;5.57;1.90;;;;;;;6.29;95.73;102507.31;5010924;28;20124;-72
2021/12/20 02:24:11;;;;;;;10.20;2.20;;;;;;;6.30;96.23;102505.56;4994693;28;21799;-72
2021/12/20 02:26:37;;;;;;;9.52;2.67;;;;;;;6.29;95.48;102512.53;5015115;28;20064;-73
2021/12/20 02:29:08;;;;;;;6.13;1.73;;;;;;;6.29;95.52;102511.66;5014736;28;20085;-71
2021/12/20 02:39:56;;;;;;;5.32;1.98;;;;;;;6.23;95.32;102506.66;5000093;28;20050;-73
2021/12/20 02:45:11;;;;;;;8.95;2.30;;;;;;;6.19;95.22;102502.47;5071068;27;20469;-76
2021/12/20 02:47:42;;;;;;;15.20;3.33;;;;;;;6.16;94.80;102505.16;5070803;28;20051;-74
2021/12/20 02:50:09;;;;;;;6.90;2.88;;;;;;;6.11;94.98;102499.25;5068296;28;20071;-74
2021/12/20 02:52:36;;;;;;;4.15;1.40;;;;;;;6.18;95.00;102495.53;5065637;28;20036;-73
2021/12/20 02:55:02;;;;;;;3.30;2.00;;;;;;;6.17;95.03;102494.66;5068971;28;20062;-72
2021/12/20 02:57:29;;;;;;;23.02;2.45;;;;;;;6.17;94.97;102501.66;5068492;28;20032;-74
2021/12/20 02:59:55;;;;;;;10.43;1.70;;;;;;;6.13;94.34;102505.25;5069095;28;20566;-73
2021/12/20 03:02:24;;;;;;;17.10;1.58;;;;;;;6.16;94.47;102498.19;5068071;28;20052;-74
2021/12/20 03:04:51;;;;;;;15.23;2.40;;;;;;;6.15;94.96;102500.84;5074531;28;20028;-74
2021/12/20 03:07:22;;;;;;;30.30;2.72;;;;;;;6.10;95.28;102501.00;5076233;28;20040;-72
2021/12/20 03:09:54;;;;;;;5.68;1.52;;;;;;;6.03;94.99;102506.50;5071397;28;20044;-73
2021/12/20 03:12:27;;;;;;;5.20;1.65;;;;;;;6.08;94.97;102509.78;5071067;28;20040;-73
2021/12/20 03:15:00;;;;;;;14.10;2.17;;;;;;;6.12;95.21;102496.59;5068758;28;20056;-73
2021/12/20 03:17:29;;;;;;;14.27;1.98;;;;;;;6.15;94.92;102503.47;5069124;28;20143;-73
2021/12/20 03:19:55;;;;;;;9.82;1.83;;;;;;;6.15;95.08;102506.06;5070759;28;20045;-73
2021/12/20 03:22:22;;;;;;;14.52;2.17;;;;;;;6.15;95.23;102501.72;5068730;28;20503;-73
2021/12/20 03:24:49;;;;;;;14.35;1.15;;;;;;;6.18;94.95;102495.53;5073333;28;20028;-73
2021/12/20 03:27:15;;;;;;;2.28;1.00;;;;;;;6.18;94.06;102500.75;5069507;28;20107;-73
2021/12/20 03:29:42;;;;;;;3.78;1.88;;;;;;;6.15;94.01;102491.28;5054953;28;20105;-73
2021/12/20 03:32:09;;;;;;;6.45;1.00;;;;;;;6.11;94.42;102504.47;5069958;28;20125;-74
2021/12/20 03:34:37;;;;;;;14.63;2.05;;;;;;;6.04;94.56;102513.38;5084794;28;20510;-75
2021/12/20 03:37:04;;;;;;;12.73;1.23;;;;;;;5.96;94.73;102489.31;5070098;28;20032;-73
2021/12/20 03:39:30;;;;;;;3.92;1.25;;;;;;;6.05;94.54;102515.09;5073414;28;20047;-73
2021/12/20 03:41:57;;;;;;;15.75;1.88;;;;;;;6.06;94.38;102516.81;5069975;28;20844;-74
2021/12/20 03:44:25;;;;;;;4.22;0.98;;;;;;;6.07;94.00;102508.09;5067856;28;20059;-74
2021/12/20 03:46:52;;;;;;;3.40;1.48;;;;;;;6.08;93.57;102509.78;5070387;28;20106;-72
2021/12/20 03:49:19;;;;;;;19.70;2.08;;;;;;;6.04;94.03;102509.03;5097798;27;20131;-74
2021/12/20 03:51:47;;;;;;;2.75;1.40;;;;;;;6.12;93.39;102506.16;5072976;28;20041;-72
2021/12/20 03:54:13;;;;;;;7.18;1.20;;;;;;;6.10;94.00;102497.56;5068754;28;20040;-73
2021/12/20 03:56:40;;;;;;;10.52;1.52;;;;;;;6.11;93.34;102504.47;5061151;28;20040;-74
2021/12/20 03:59:07;;;;;;;6.32;1.08;;;;;;;6.05;93.63;102495.09;5051883;28;20076;-73
2021/12/20 04:01:33;;;;;;;9.85;1.10;;;;;;;6.02;93.72;102495.19;5059615;28;20046;-73
2021/12/20 04:04:02;;;;;;;11.63;1.98;;;;;;;6.07;93.70;102497.66;5053425;28;20082;-74
2021/12/20 04:06:29;;;;;;;25.23;2.30;;;;;;;5.99;93.92;102504.88;5056288;28;20047;-75
2021/12/20 04:08:57;;;;;;;2.63;1.13;;;;;;;6.03;93.58;102503.88;5053738;28;20048;-74
2021/12/20 04:11:23;;;;;;;8.70;2.63;;;;;;;6.06;93.12;102493.31;5054846;28;20131;-73
2021/12/20 04:13:50;;;;;;;10.93;2.00;;;;;;;6.01;93.52;102498.69;5056460;28;20044;-73
2021/12/20 04:16:16;;;;;;;10.05;1.65;;;;;;;6.00;92.85;102504.81;5052198;28;20155;-72
2021/12/20 04:18:43;;;;;;;20.02;2.22;;;;;;;5.98;93.27;102497.94;5053583;28;20036;-73
2021/12/20 04:21:11;;;;;;;3.25;1.13;;;;;;;5.98;93.78;102493.59;5054826;28;20041;-72
2021/12/20 04:23:38;;;;;;;10.90;2.35;;;;;;;5.98;93.23;102493.59;5055558;28;20044;-72
2021/12/20 04:26:06;;;;;;;13.60;1.48;;;;;;;5.97;92.96;102504.06;5057888;28;20040;-73
2021/12/20 04:28:33;;;;;;;7.85;1.73;;;;;;;5.94;93.52;102501.56;5054904;28;20099;-76
2021/12/20 04:31:00;;;;;;;4.03;1.02;;;;;;;5.88;93.01;102506.97;5056165;28;20047;-72
2021/12/20 04:33:27;;;;;;;10.00;1.90;;;;;;;5.88;93.35;102506.97;5055559;28;20044;-74
2021/12/20 04:35:53;;;;;;;4.45;1.42;;;;;;;5.87;93.42;102503.50;5056330;28;20571;-74
2021/12/20 04:38:20;;;;;;;12.32;1.35;;;;;;;5.87;93.89;102508.72;5074514;28;20036;-73
2021/12/20 04:40:48;;;;;;;11.48;1.52;;;;;;;5.93;93.01;102510.28;5072741;28;20049;-74
2021/12/20 04:43:16;;;;;;;13.05;1.92;;;;;;;5.88;93.57;102507.84;5062515;28;20083;-73
2021/12/20 04:45:43;;;;;;;3.70;1.55;;;;;;;5.89;93.66;102513.88;5055891;28;20135;-75
2021/12/20 04:48:10;;;;;;;9.82;1.58;;;;;;;5.88;93.45;102501.75;5052215;28;20072;-73
2021/12/20 04:50:37;;;;;;;7.60;1.48;;;;;;;5.94;92.01;102501.56;5057726;28;20040;-72
2021/12/20 04:53:04;;;;;;;5.32;0.90;;;;;;;5.91;91.99;102497.28;5054068;28;20055;-72
2021/12/20 04:55:31;;;;;;;5.30;1.85;;;;;;;5.86;92.06;102506.19;5072999;28;20072;-73
2021/12/20 04:57:59;;;;;;;6.68;1.27;;;;;;;5.81;91.14;102511.53;5055977;28;20072;-73
2021/12/20 05:00:29;;;;;;;10.63;2.25;;;;;;;5.75;91.73;102513.44;5049778;28;20049;-74
2021/12/20 05:02:56;;;;;;;14.98;1.83;;;;;;;5.71;92.63;102520.50;5052825;28;20068;-74
2021/12/20 05:05:23;;;;;;;1.92;1.23;;;;;;;5.68;92.89;102519.75;5049772;28;20113;-72
2021/12/20 05:07:51;;;;;;;6.40;1.70;;;;;;;5.76;92.94;102520.38;5050052;28;20044;-73
2021/12/20 05:10:26;;;;;;;1.92;0.98;;;;;;;5.75;92.95;102513.44;5049957;28;20497;-74
2021/12/20 05:12:54;;;;;;;12.45;2.50;;;;;;;5.67;93.21;102518.03;5056312;28;20076;-73
2021/12/20 05:15:20;;;;;;;4.70;1.60;;;;;;;5.66;93.26;102511.13;5058880;28;20040;-74
2021/12/20 05:17:48;;;;;;;10.93;2.85;;;;;;;5.77;91.73;102512.53;5059506;28;20071;-72
2021/12/20 05:20:15;;;;;;;26.17;2.33;;;;;;;5.76;92.32;102515.16;5050553;28;20069;-74
2021/12/20 05:22:41;;;;;;;11.43;2.33;;;;;;;5.78;91.85;102518.59;5056541;28;20814;-74
2021/12/20 05:25:09;;;;;;;16.83;1.50;;;;;;;5.70;92.78;102510.97;5051188;28;20119;-74
2021/12/20 05:27:35;;;;;;;6.78;0.85;;;;;;;5.66;93.40;102503.31;5053153;28;20094;-75
2021/12/20 05:30:03;;;;;;;5.18;1.05;;;;;;;5.72;92.73;102498.75;5051100;28;20041;-74
2021/12/20 05:32:30;;;;;;;6.70;2.03;;;;;;;5.77;92.64;102504.69;5055590;28;20043;-73
2021/12/20 05:34:58;;;;;;;11.10;1.45;;;;;;;5.76;91.72;102499.50;5051198;28;20064;-72
2021/12/20 05:37:25;;;;;;;4.55;1.52;;;;;;;5.78;92.38;102500.34;5053445;28;20064;-72
2021/12/20 05:39:51;;;;;;;3.53;0.98;;;;;;;5.77;92.49;102501.25;5053797;28;20048;-73
2021/12/20 05:42:18;;;;;;;11.65;0.98;;;;;;;5.77;92.26;102503.84;5054151;28;20044;-73
2021/12/20 05:44:45;;;;;;;4.63;1.40;;;;;;;5.73;91.57;102503.06;5058866;28;20706;-73
2021/12/20 05:47:11;;;;;;;16.08;2.95;;;;;;;5.74;91.38;102498.69;5050219;28;20037;-73
2021/12/20 05:49:38;;;;;;;4.05;1.30;;;;;;;5.71;91.42;102498.78;5054113;28;20123;-74
2021/12/20 05:52:06;;;;;;;8.10;1.63;;;;;;;5.72;90.77;102511.78;5052444;28;20094;-74
2021/12/20 05:54:33;;;;;;;14.93;2.00;;;;;;;5.72;90.62;102510.91;5055418;28;20049;-73
2021/12/20 05:56:59;;;;;;;28.25;2.67;;;;;;;5.71;91.00;102510.09;5054324;28;20510;-73
2021/12/20 05:59:26;;;;;;;18.45;1.73;;;;;;;5.73;91.10;102512.63;5053853;28;20060;-73
2021/12/20 06:01:53;;;;;;;9.77;1.77;;;;;;;5.72;90.85;102518.75;5056205;28;20048;-73
2021/12/20 06:04:19;;;;;;;6.38;2.05;;;;;;;5.74;90.96;102523.03;5057119;28;20040;-74
2021/12/20 06:06:47;;;;;;;17.45;2.53;;;;;;;5.71;90.74;102523.13;5053259;28;20052;-72
2021/12/20 06:09:21;;;;;;;6.47;1.30;;;;;;;5.76;90.17;102520.38;5051430;28;20036;-73
2021/12/20 06:11:48;;;;;;;19.38;2.15;;;;;;;5.74;91.02;102519.56;5050234;28;20044;-74
2021/12/20 06:14:15;;;;;;;5.32;0.93;;;;;;;5.74;90.05;102519.56;5047713;28;20220;-72
2021/12/20 06:16:41;;;;;;;17.10;2.35;;;;;;;5.67;90.62;102520.66;5048156;28;21144;-73
2021/12/20 06:19:08;;;;;;;4.07;1.10;;;;;;;5.67;90.67;102523.25;5047501;28;20064;-73
2021/12/20 06:21:35;;;;;;;15.93;2.85;;;;;;;5.62;91.15;102517.34;5048503;28;20052;-71
2021/12/20 06:24:02;;;;;;;3.35;1.42;;;;;;;5.59;90.65;102520.88;5047136;28;20144;-72
2021/12/20 06:26:29;;;;;;;8.63;1.25;;;;;;;5.57;91.82;102516.63;5052969;28;20479;-73
2021/12/20 06:28:56;;;;;;;13.18;1.52;;;;;;;5.54;91.36;102527.13;5050563;28;20051;-72
2021/12/20 06:31:23;;;;;;;15.75;2.47;;;;;;;5.49;91.30;102529.03;5055370;28;20040;-71
2021/12/20 06:33:49;;;;;;;19.10;1.67;;;;;;;5.50;90.80;102533.34;5049724;28;20045;-72
2021/12/20 06:36:18;;;;;;;6.97;1.60;;;;;;;5.56;90.76;102530.53;5048977;28;20036;-74
2021/12/20 06:38:45;;;;;;;17.00;2.35;;;;;;;5.60;89.68;102534.78;5088317;27;20059;-71
2021/12/20 06:41:12;;;;;;;11.35;2.30;;;;;;;5.56;90.76;102540.97;5052655;28;20041;-72
2021/12/20 06:43:41;;;;;;;6.63;1.38;;;;;;;5.53;91.10;102536.72;5052103;28;20159;-74
2021/12/20 06:46:07;;;;;;;11.57;1.70;;;;;;;5.50;90.63;102532.50;5052083;28;20048;-73
2021/12/20 06:48:36;;;;;;;17.40;1.48;;;;;;;5.50;90.81;102541.16;5050200;28;20048;-72
2021/12/20 06:51:05;;;;;;;8.93;1.65;;;;;;;5.49;91.36;102546.44;5055931;28;20041;-73
2021/12/20 06:53:31;;;;;;;12.43;1.65;;;;;;;5.54;90.48;102553.19;5051162;28;20050;-72
2021/12/20 06:55:58;;;;;;;10.35;2.13;;;;;;;5.53;91.60;102547.13;5054537;28;20037;-73
2021/12/20 06:58:25;;;;;;;4.75;1.27;;;;;;;5.52;91.57;102548.91;5053780;28;20037;-71
2021/12/20 07:00:54;;;;;;;11.32;2.65;;;;;;;5.53;91.10;102546.28;5055681;28;20045;-73
2021/12/20 07:03:23;;;;;;;7.78;1.08;;;;;;;5.53;91.11;102546.28;5053546;28;20040;-72
2021/12/20 07:05:50;;;;;;;25.40;1.48;;;;;;;5.53;91.41;102546.28;5058537;28;20059;-71
2021/12/20 07:08:16;;;;;;;11.95;1.42;;;;;;;5.55;91.09;102555.78;5055491;28;20049;-72
2021/12/20 07:10:43;;;;;;;21.20;2.30;;;;;;;5.55;91.28;102550.56;5064388;28;20040;-74
2021/12/20 07:13:10;;;;;;;9.57;1.20;;;;;;;5.58;91.55;102552.22;5066374;28;20051;-72
2021/12/20 07:15:38;;;;;;;8.45;1.80;;;;;;;5.54;91.80;102554.06;5068813;28;20603;-70
2021/12/20 07:18:06;;;;;;;25.75;2.50;;;;;;;5.53;91.77;102555.84;5052955;28;20033;-72
2021/12/20 07:20:33;;;;;;;9.60;3.13;;;;;;;5.53;91.41;102558.44;5055244;28;20056;-74
2021/12/20 07:23:00;;;;;;;17.17;1.45;;;;;;;5.55;91.95;102560.09;5052549;28;20071;-73
2021/12/20 07:25:27;;;;;;;9.27;2.17;;;;;;;5.59;91.73;102564.34;5054252;28;20067;-73
2021/12/20 07:27:53;;;;;;;10.55;2.15;;;;;;;5.59;91.58;102566.97;5060571;28;20088;-72
2021/12/20 07:30:21;;;;;;;7.95;2.25;;;;;;;5.56;91.53;102577.47;5053543;28;20115;-73
2021/12/20 07:32:50;;;;;;;11.48;2.03;;;;;;;5.50;91.97;102577.66;5057497;28;20044;-72
2021/12/20 07:35:19;;;;;;;17.58;1.95;;;;;;;5.49;91.98;102570.72;5086021;27;20049;-73
2021/12/20 07:37:47;;;;;;;6.82;0.98;;;;;;;5.45;91.98;102563.91;5066432;28;20052;-73
2021/12/20 07:40:14;;;;;;;16.05;1.33;;;;;;;5.50;91.96;102567.22;5060357;28;20511;-73
2021/12/20 07:42:40;;;;;;;11.25;1.83;;;;;;;5.45;92.14;102563.91;5061247;28;20044;-71
2021/12/20 07:45:09;;;;;;;17.20;1.75;;;;;;;5.46;92.03;102569.97;5058880;28;20033;-72
2021/12/20 07:47:35;;;;;;;12.13;1.50;;;;;;;5.48;92.13;102571.63;5060453;28;20151;-73
2021/12/20 07:50:02;;;;;;;9.18;0.95;;;;;;;5.43;92.51;102572.66;5055011;28;20072;-72
2021/12/20 07:52:32;;;;;;;20.23;2.22;;;;;;;5.40;92.82;102585.78;5056486;28;20044;-74
2021/12/20 07:54:58;;;;;;;3.33;1.40;;;;;;;5.36;92.73;102582.41;5059182;28;20067;-71
2021/12/20 07:57:25;;;;;;;10.93;1.55;;;;;;;5.46;92.71;102578.63;5058675;28;20044;-72
2021/12/20 07:59:52;;;;;;;5.28;0.90;;;;;;;5.52;92.23;102575.88;5059732;28;20048;-71
2021/12/20 08:02:19;;;;;;;4.20;1.25;;;;;;;5.55;92.41;102580.97;5056128;28;20051;-69
2021/12/20 08:04:49;;;;;;;24.20;1.70;;;;;;;5.53;92.67;102583.63;5055233;28;20076;-69
2021/12/20 08:07:16;;;;;;;9.38;1.38;;;;;;;5.56;92.85;102582.69;5054278;28;20040;-72
2021/12/20 08:09:43;;;;;;;24.73;1.65;;;;;;;5.55;92.24;102581.84;5059585;28;20056;-69
2021/12/20 08:12:11;;;;;;;2.83;1.20;;;;;;;5.70;91.32;102576.16;5057713;28;20074;-70
2021/12/20 08:14:38;;;;;;;12.50;1.52;;;;;;;5.68;91.22;102583.16;5057779;28;20059;-69
2021/12/20 08:17:04;;;;;;;1.67;1.10;;;;;;;5.68;91.79;102587.53;5056128;28;20048;-73
2021/12/20 08:19:31;;;;;;;15.38;2.00;;;;;;;5.80;91.23;102576.75;5057829;28;20044;-69
2021/12/20 08:21:58;;;;;;;21.38;2.17;;;;;;;5.92;91.50;102579.84;5058868;28;20044;-68
2021/12/20 08:24:25;;;;;;;7.28;1.40;;;;;;;6.08;90.43;102582.84;5056954;28;20059;-70
2021/12/20 08:26:53;;;;;;;16.40;2.80;;;;;;;6.19;89.92;102585.97;5055530;28;20055;-69
2021/12/20 08:29:23;;;;;;;12.05;1.50;;;;;;;6.37;89.04;102583.59;5056640;28;20050;-71
2021/12/20 08:31:49;;;;;;;6.82;1.23;;;;;;;6.76;87.55;102574.44;5058811;28;20044;-70
2021/12/20 08:34:16;;;;;;;15.48;2.13;;;;;;;7.45;85.13;102577.97;5056121;28;20063;-71
2021/12/20 08:36:43;;;;;;;5.90;2.33;;;;;;;7.95;81.81;102577.78;5057646;28;20041;-71
2021/12/20 08:39:15;;;;;;;17.48;2.92;;;;;;;8.16;80.49;102577.81;5054929;28;20076;-71
2021/12/20 08:41:44;;;;;;;6.20;1.67;;;;;;;8.64;80.09;102573.16;5058783;28;20068;-74
2021/12/20 08:44:12;;;;;;;10.73;2.75;;;;;;;8.47;78.85;102573.00;5058826;28;20135;-69
2021/12/20 08:46:39;;;;;;;10.35;1.23;;;;;;;8.49;79.16;102578.19;5056148;28;20047;-71
2021/12/20 08:49:06;;;;;;;1.70;1.20;;;;;;;7.61;81.58;102581.72;5058721;28;20133;-73
2021/12/20 08:51:33;;;;;;;6.63;2.38;;;;;;;7.57;82.02;102588.00;5054421;28;20055;-70
2021/12/20 08:54:00;;;;;;;10.43;1.95;;;;;;;7.58;82.06;102579.25;5058221;28;20044;-70
2021/12/20 08:56:27;;;;;;;8.27;2.67;;;;;;;7.34;83.38;102585.38;5055010;28;20072;-72
2021/12/20 08:58:53;;;;;;;15.80;2.15;;;;;;;6.98;83.82;102591.91;5058382;28;20036;-74
2021/12/20 09:01:23;;;;;;;22.48;3.15;;;;;;;6.93;84.40;102592.97;5056647;28;20040;-71
2021/12/20 09:03:50;;;;;;;8.57;2.80;;;;;;;6.95;83.84;102585.94;5059468;28;20383;-71
2021/12/20 09:06:17;;;;;;;6.70;1.77;;;;;;;6.94;84.18;102597.31;5051701;28;20068;-72
2021/12/20 09:08:46;;;;;;;8.52;1.85;;;;;;;6.89;84.42;102597.47;5056691;28;20040;-71
2021/12/20 09:11:14;;;;;;;16.98;2.40;;;;;;;6.71;85.19;102594.63;5056267;28;20621;-70
2021/12/20 09:13:41;;;;;;;11.25;2.65;;;;;;;6.81;85.27;102596.03;5053024;28;20048;-71
2021/12/20 09:16:08;;;;;;;8.40;1.80;;;;;;;6.92;84.52;102596.50;5056264;28;20085;-71
2021/12/20 09:18:36;;;;;;;21.05;2.25;;;;;;;7.02;84.74;102598.72;5058616;28;20089;-72
2021/12/20 09:21:03;;;;;;;11.63;2.22;;;;;;;7.61;82.11;102595.66;5058974;28;20500;-72
2021/12/20 09:23:32;;;;;;;28.13;3.08;;;;;;;7.94;79.40;102589.97;5058459;28;20052;-70
2021/12/20 09:25:59;;;;;;;11.70;1.77;;;;;;;7.95;79.63;102599.53;5059284;28;20044;-71
2021/12/20 09:28:25;;;;;;;9.93;2.17;;;;;;;8.11;79.50;102608.50;5053136;28;20048;-71
2021/12/20 09:30:52;;;;;;;4.18;1.05;;;;;;;7.68;80.26;102609.34;5059357;28;20053;-72
2021/12/20 09:33:19;;;;;;;10.68;1.52;;;;;;;7.73;80.46;102610.88;5058571;28;20049;-72
2021/12/20 09:35:49;;;;;;;9.80;2.20;;;;;;;7.51;82.13;102614.38;5058736;28;20048;-74
2021/12/20 09:38:17;;;;;;;14.38;2.00;;;;;;;7.44;82.73;102624.19;5056742;28;20128;-73
2021/12/20 09:41:02;;;;;;;9.57;2.28;;;;;;;7.77;80.78;102619.47;5059876;28;20126;-73
2021/12/20 09:43:29;;;;;;;10.65;1.98;;;;;;;7.75;81.24;102618.69;5061699;28;20052;-74
2021/12/20 09:45:59;;;;;;;22.15;2.05;;;;;;;7.98;80.08;102627.34;5063816;28;20040;-71
2021/12/20 09:48:26;;;;;;;29.70;2.63;;;;;;;7.91;79.03;102625.03;5069385;28;20037;-74
2021/12/20 09:50:54;;;;;;;10.63;2.45;;;;;;;8.00;79.50;102630.75;5063329;28;20048;-73
2021/12/20 09:53:21;;;;;;;11.65;2.30;;;;;;;8.01;78.81;102632.47;5056642;28;20056;-74
2021/12/20 09:55:49;;;;;;;10.38;2.92;;;;;;;7.81;79.10;102624.53;5055240;28;20044;-73
2021/12/20 09:58:16;;;;;;;18.38;1.83;;;;;;;7.76;80.47;102630.84;5056206;28;20051;-72
2021/12/20 10:00:43;;;;;;;7.22;1.83;;;;;;;7.88;79.82;102619.91;5056127;28;20039;-75
2021/12/20 10:03:13;;;;;;;15.15;2.60;;;;;;;7.79;79.26;102628.13;5057065;28;20081;-72
2021/12/20 10:05:39;;;;;;;13.32;2.35;;;;;;;7.88;80.57;102619.91;5051272;28;20143;-73
2021/12/20 10:08:14;;;;;;;13.40;1.48;;;;;;;8.13;78.51;102622.38;5054977;28;20127;-73
2021/12/20 10:10:43;;;;;;;13.10;2.28;;;;;;;8.20;79.64;102617.81;5047162;28;20048;-73
2021/12/20 10:13:21;;;;;;;19.65;2.42;;;;;;;8.28;77.17;102616.56;5054745;28;20131;-73
2021/12/20 10:15:48;;;;;;;11.68;2.95;;;;;;;8.33;79.08;102625.06;5053320;28;20037;-73
2021/12/20 10:18:15;;;;;;;7.82;2.17;;;;;;;8.68;75.46;102619.25;5055127;28;20047;-74
2021/12/20 10:20:42;;;;;;;7.18;2.75;;;;;;;9.31;75.83;102608.66;5057112;28;20044;-72
2021/12/20 10:23:14;;;;;;;8.85;2.22;;;;;;;9.50;71.90;102612.13;5055756;28;20040;-74
2021/12/20 10:25:43;;;;;;;13.75;2.40;;;;;;;9.07;72.97;102614.97;5056978;28;20045;-73
2021/12/20 10:28:12;;;;;;;11.73;2.13;;;;;;;8.96;73.87;102611.94;5051791;28;20029;-74
2021/12/20 10:30:42;;;;;;;15.98;3.50;;;;;;;8.63;74.80;102612.50;5056568;28;20055;-74
2021/12/20 10:33:11;;;;;;;11.75;3.35;;;;;;;8.99;74.86;102609.16;5055210;28;20048;-73
2021/12/20 10:35:42;;;;;;;13.07;3.25;;;;;;;8.82;74.03;102609.91;5055557;28;20055;-73
2021/12/20 10:38:33;;;;;;;9.07;2.35;;;;;;;8.84;73.48;102607.22;5054308;28;20064;-72
2021/12/20 10:41:03;;;;;;;13.13;3.30;;;;;;;8.77;73.31;102610.19;5056157;28;20139;-71
2021/12/20 10:43:35;;;;;;;15.43;2.92;;;;;;;9.25;72.87;102607.16;5052954;28;20053;-73
2021/12/20 10:46:10;;;;;;;11.27;2.22;;;;;;;9.02;72.00;102614.28;5055880;28;20449;-74
2021/12/20 10:48:37;;;;;;;13.32;2.00;;;;;;;8.95;73.03;102620.72;5052458;28;20040;-74
2021/12/20 10:51:04;;;;;;;15.65;2.13;;;;;;;8.94;73.01;102613.78;5053883;28;20044;-74
2021/12/20 10:53:32;;;;;;;7.45;1.92;;;;;;;9.31;70.95;102612.09;5049713;28;20037;-72
2021/12/20 10:56:02;;;;;;;19.00;2.75;;;;;;;9.21;70.98;102608.19;5085543;28;20044;-75
2021/12/20 10:58:36;;;;;;;11.40;2.63;;;;;;;9.01;69.79;102594.25;5046886;28;20491;-76
2021/12/20 11:01:20;;;;;;;10.43;2.78;;;;;;;8.90;70.21;102602.56;5054649;28;20590;-74
2021/12/20 11:04:00;;;;;;;27.17;3.60;;;;;;;8.93;71.43;102609.44;5082965;28;20044;-73
2021/12/20 11:09:22;;;;;;;22.45;3.10;;;;;;;8.72;71.02;102602.50;5059270;28;20045;-72
2021/12/20 11:11:50;;;;;;;25.60;2.17;;;;;;;8.64;73.03;102601.97;5061197;28;20041;-73
2021/12/20 11:14:19;;;;;;;15.02;3.22;;;;;;;8.87;71.20;102604.47;5059777;28;20044;-73
2021/12/20 11:16:49;;;;;;;22.40;3.75;;;;;;;8.78;72.41;102591.75;5058530;28;20128;-72
2021/12/20 11:19:27;;;;;;;17.48;2.75;;;;;;;8.80;70.87;102610.91;5057947;28;20119;-74
2021/12/20 11:21:57;;;;;;;10.52;2.95;;;;;;;8.72;70.93;102605.13;5059529;28;20144;-72
2021/12/20 11:24:28;;;;;;;13.60;2.55;;;;;;;8.68;71.15;102598.31;5062249;28;20115;-73
2021/12/20 11:26:56;;;;;;;17.63;3.60;;;;;;;8.66;72.10;102592.25;5057459;28;20056;-74
2021/12/20 11:29:23;;;;;;;9.60;2.38;;;;;;;8.71;72.46;102595.56;5059412;28;20064;-75
2021/12/20 11:31:50;;;;;;;10.35;2.40;;;;;;;8.85;71.24;102582.72;5058942;28;20053;-73
2021/12/20 11:34:17;;;;;;;22.50;3.60;;;;;;;8.91;69.98;102590.31;5060310;28;20510;-73
2021/12/20 11:36:45;;;;;;;18.92;4.55;;;;;;;8.79;70.46;102590.84;5058804;28;20052;-74
2021/12/20 11:39:11;;;;;;;15.60;3.78;;;;;;;8.77;70.42;102589.22;5061676;28;20112;-72
2021/12/20 11:41:40;;;;;;;34.80;4.13;;;;;;;8.92;68.90;102594.63;5060964;28;20044;-72
2021/12/20 11:44:09;;;;;;;18.08;2.67;;;;;;;8.91;70.12;102592.94;5060620;28;20052;-71
2021/12/20 11:46:41;;;;;;;18.77;3.67;;;;;;;9.17;68.96;102590.91;5061801;28;20064;-73
2021/12/20 11:49:08;;;;;;;21.23;3.00;;;;;;;9.05;69.91;102588.78;5060485;28;20040;-72